Time;durP1;ratioP1;P1;durP2;ratioP2;P2;SDS_P1;SDS_P2;PMS_P1;PMS_P2;Temp;Humidity;BMP_temperature;BMP_pressure;BME280_temperature;BME280_humidity;BME280_pressure;Samples;Min_cycle;Max_cycle;Signal;HPM_P1;HPM_P2
2023/01/31 00:00:44;;;;;;;0.50;0.50;;;;;;;5.69;62.08;100079.97;18367397;32;20137;-57
2023/01/31 00:10:48;;;;;;;0.43;0.43;;;;;;;5.77;61.32;100053.25;18366484;32;20233;-57
2023/01/31 00:20:52;;;;;;;0.70;0.70;;;;;;;5.53;64.86;100052.97;18307262;32;20101;-57
2023/01/31 00:30:58;;;;;;;0.60;0.60;;;;;;;5.10;67.69;100035.16;18351770;32;20530;-58
2023/01/31 00:41:02;;;;;;;0.70;0.70;;;;;;;5.00;67.26;100029.00;18365617;32;20085;-57
2023/01/31 00:51:07;;;;;;;0.60;0.60;;;;;;;5.12;65.00;100053.28;18365473;32;20120;-57
2023/01/31 01:01:12;;;;;;;0.60;0.60;;;;;;;5.44;62.95;100067.53;18363710;32;20107;-57
2023/01/31 01:11:19;;;;;;;0.50;0.50;;;;;;;5.71;60.93;100054.06;18364459;32;20409;-56
2023/01/31 01:21:24;;;;;;;0.62;0.62;;;;;;;5.85;59.40;100061.16;18364405;32;20108;-57
2023/01/31 01:31:29;;;;;;;0.55;0.55;;;;;;;5.59;59.57;100074.63;18366157;32;20089;-57
2023/01/31 01:41:33;;;;;;;0.80;0.80;;;;;;;5.67;59.22;100102.34;18367277;32;20085;-57
2023/01/31 01:51:38;;;;;;;0.70;0.70;;;;;;;5.94;58.53;100098.37;18366623;32;20105;-57
2023/01/31 02:01:41;;;;;;;0.65;0.65;;;;;;;5.92;58.20;100133.78;18367156;32;20102;-56
2023/01/31 02:11:45;;;;;;;0.50;0.50;;;;;;;5.77;58.54;100150.00;18365764;32;20105;-57
2023/01/31 02:22:12;;;;;;;0.60;0.60;;;;;;;6.17;57.71;100165.22;18365206;32;20123;-57
2023/01/31 02:32:48;;;;;;;0.50;0.50;;;;;;;5.96;58.57;100166.63;18361481;32;20143;-57
2023/01/31 02:42:59;;;;;;;0.75;0.75;;;;;;;5.68;59.23;100135.16;18102127;32;20137;-57
2023/01/31 02:53:06;;;;;;;0.50;0.50;;;;;;;5.91;57.96;100144.09;18101463;32;20118;-57
2023/01/31 03:03:17;;;;;;;0.45;0.45;;;;;;;5.95;56.42;100172.66;18100857;32;20119;-57
2023/01/31 03:13:36;;;;;;;0.50;0.50;;;;;;;6.10;55.75;100184.97;18177475;32;20089;-57
2023/01/31 03:23:42;;;;;;;0.55;0.55;;;;;;;6.15;55.24;100191.97;18362367;32;20085;-57
2023/01/31 03:33:48;;;;;;;1.75;0.80;;;;;;;6.23;54.63;100205.88;18370587;32;20211;-57
2023/01/31 03:43:57;;;;;;;0.60;0.60;;;;;;;6.25;54.83;100211.97;18363644;32;20078;-57
2023/01/31 03:54:04;;;;;;;0.70;0.70;;;;;;;6.09;54.71;100229.03;18323751;32;160729;-57
2023/01/31 04:04:12;;;;;;;0.60;0.60;;;;;;;6.33;54.28;100235.38;18313586;32;20093;-57
2023/01/31 04:14:16;;;;;;;0.52;0.52;;;;;;;6.18;55.25;100268.03;18306048;32;20103;-61
2023/01/31 04:24:20;;;;;;;0.60;0.60;;;;;;;5.92;55.98;100271.09;18364831;32;20159;-57
2023/01/31 04:34:23;;;;;;;0.60;0.60;;;;;;;6.14;55.85;100283.53;18369211;32;20112;-57
2023/01/31 04:44:28;;;;;;;0.50;0.50;;;;;;;6.42;55.08;100328.84;18368811;32;20112;-57
2023/01/31 04:54:31;;;;;;;0.70;0.70;;;;;;;6.07;57.13;100340.44;18361927;32;20511;-57
2023/01/31 05:04:36;;;;;;;0.60;0.60;;;;;;;6.04;58.16;100362.84;18304216;32;20133;-58
2023/01/31 05:14:39;;;;;;;0.60;0.60;;;;;;;6.19;57.94;100386.44;18305985;32;20094;-57
2023/01/31 05:24:43;;;;;;;0.60;0.60;;;;;;;6.19;59.06;100408.88;18367387;32;20484;-57
2023/01/31 05:34:47;;;;;;;0.60;0.60;;;;;;;6.00;63.33;100412.88;18354155;32;20086;-57
2023/01/31 05:44:51;;;;;;;0.60;0.60;;;;;;;6.11;62.92;100398.38;18299226;32;20397;-57
2023/01/31 05:54:55;;;;;;;0.80;0.80;;;;;;;6.13;61.94;100406.19;18298638;32;20102;-58
2023/01/31 06:05:00;;;;;;;0.70;0.70;;;;;;;6.31;60.30;100403.00;18300356;32;20164;-57
2023/01/31 06:15:04;;;;;;;0.60;0.60;;;;;;;6.00;59.64;100393.00;18301368;32;20510;-57
2023/01/31 06:25:11;;;;;;;0.70;0.70;;;;;;;5.81;59.23;100397.84;18301162;32;20739;-57
2023/01/31 06:35:16;;;;;;;0.80;0.80;;;;;;;5.77;57.03;100406.44;18300915;32;20433;-57
2023/01/31 06:45:22;;;;;;;0.60;0.60;;;;;;;5.81;56.51;100415.12;18300357;32;20141;-57
2023/01/31 06:55:25;;;;;;;0.70;0.70;;;;;;;5.81;56.45;100404.78;18302363;32;20090;-57
2023/01/31 07:05:30;;;;;;;0.60;0.60;;;;;;;5.82;55.48;100435.88;18301683;32;20112;-57
2023/01/31 07:15:33;;;;;;;0.50;0.50;;;;;;;6.42;53.23;100424.78;18321977;32;20086;-58
2023/01/31 07:25:38;;;;;;;0.50;0.50;;;;;;;7.44;50.62;100438.22;18316675;32;20124;-57
2023/01/31 07:35:41;;;;;;;0.50;0.50;;;;;;;8.52;46.64;100437.50;18370697;32;20137;-57
2023/01/31 07:45:46;;;;;;;0.60;0.60;;;;;;;9.44;44.64;100453.59;18370489;32;20120;-57
2023/01/31 07:55:49;;;;;;;0.50;0.50;;;;;;;9.57;43.63;100470.13;18333354;32;20113;-57
2023/01/31 08:05:54;;;;;;;0.70;0.70;;;;;;;8.79;44.92;100490.59;18303328;32;20120;-57
2023/01/31 08:15:57;;;;;;;0.40;0.40;;;;;;;8.51;46.50;100515.53;18304924;32;20549;-58
2023/01/31 08:26:04;;;;;;;0.50;0.50;;;;;;;7.76;47.62;100520.88;18305673;32;20116;-58
2023/01/31 08:36:12;;;;;;;0.70;0.70;;;;;;;7.72;48.13;100558.06;18305344;32;20093;-58
2023/01/31 08:46:17;;;;;;;0.57;0.57;;;;;;;7.81;47.40;100588.50;18305297;32;20121;-58
2023/01/31 08:56:24;;;;;;;0.70;0.70;;;;;;;7.99;46.37;100611.22;18304951;32;20124;-58
2023/01/31 09:06:28;;;;;;;0.50;0.50;;;;;;;8.21;47.10;100637.50;18304464;32;20439;-58
2023/01/31 09:16:32;;;;;;;0.60;0.60;;;;;;;8.36;46.84;100642.00;18272692;32;20425;-58
2023/01/31 09:26:37;;;;;;;0.60;0.60;;;;;;;8.46;46.34;100656.84;18240596;32;20094;-58
2023/01/31 09:36:40;;;;;;;0.70;0.70;;;;;;;8.76;45.47;100661.50;18240837;32;20108;-58
2023/01/31 09:46:47;;;;;;;0.68;0.68;;;;;;;9.43;44.88;100668.13;18240929;32;20378;-58
2023/01/31 09:57:00;;;;;;;0.52;0.52;;;;;;;9.17;44.79;100666.19;18257165;32;20164;-58
2023/01/31 10:07:09;;;;;;;0.50;0.50;;;;;;;9.04;45.41;100674.78;18303042;32;20120;-58
2023/01/31 10:17:18;;;;;;;0.60;0.60;;;;;;;8.66;47.51;100677.03;18302721;32;20097;-58
2023/01/31 10:27:39;;;;;;;0.50;0.50;;;;;;;8.81;47.35;100665.88;18302165;32;20081;-58
2023/01/31 10:37:46;;;;;;;0.50;0.50;;;;;;;8.67;46.60;100694.37;18305620;32;20090;-59
2023/01/31 10:47:55;;;;;;;0.55;0.55;;;;;;;8.69;46.27;100686.59;18344405;32;20144;-59
2023/01/31 10:57:59;;;;;;;0.60;0.60;;;;;;;8.65;47.50;100690.91;18312677;32;20116;-58
2023/01/31 11:08:07;;;;;;;0.60;0.60;;;;;;;8.30;46.98;100667.94;18309682;32;20381;-58
2023/01/31 11:18:14;;;;;;;0.62;0.62;;;;;;;8.57;47.08;100669.12;18308392;32;20121;-58
2023/01/31 11:28:21;;;;;;;0.60;0.60;;;;;;;8.79;44.95;100657.19;18308684;32;20085;-58
2023/01/31 11:38:25;;;;;;;0.50;0.50;;;;;;;9.10;43.70;100656.56;18307967;32;20159;-58
2023/01/31 11:48:33;;;;;;;0.60;0.60;;;;;;;8.80;43.76;100637.22;18307452;32;20116;-58
2023/01/31 11:58:38;;;;;;;0.60;0.60;;;;;;;8.68;41.88;100638.88;18307515;32;20097;-58
2023/01/31 12:08:43;;;;;;;0.70;0.70;;;;;;;8.51;42.29;100632.63;18326359;32;20097;-59
2023/01/31 12:19:06;;;;;;;0.50;0.50;;;;;;;7.77;42.80;100626.56;18306661;32;20094;-58
2023/01/31 12:29:24;;;;;;;0.52;0.52;;;;;;;8.02;43.16;100641.59;18306643;32;20094;-58
2023/01/31 12:39:39;;;;;;;0.60;0.60;;;;;;;8.27;42.63;100644.50;18306334;32;20093;-58
2023/01/31 12:49:55;;;;;;;0.50;0.50;;;;;;;8.19;42.29;100650.47;18305946;32;20453;-58
2023/01/31 13:00:09;;;;;;;0.50;0.50;;;;;;;7.81;43.46;100650.87;18304444;32;20456;-58
2023/01/31 13:10:26;;;;;;;0.57;0.57;;;;;;;7.75;44.20;100650.78;18305261;32;20084;-58
2023/01/31 13:20:34;;;;;;;0.45;0.45;;;;;;;7.96;43.60;100649.31;18322466;32;20401;-58
2023/01/31 13:30:42;;;;;;;0.77;0.77;;;;;;;8.13;43.51;100658.19;18368380;32;20101;-58
2023/01/31 13:40:49;;;;;;;0.70;0.70;;;;;;;8.30;43.83;100662.72;18366454;32;20426;-58
2023/01/31 13:50:59;;;;;;;0.70;0.70;;;;;;;8.26;43.12;100655.75;18365316;32;20486;-59
2023/01/31 14:01:05;;;;;;;0.60;0.60;;;;;;;8.39;42.32;100657.63;18365014;32;20115;-58
2023/01/31 14:11:34;;;;;;;0.70;0.70;;;;;;;8.32;43.22;100661.91;18368087;32;20104;-58
2023/01/31 14:21:51;;;;;;;1.40;1.30;;;;;;;8.23;43.09;100679.09;18349138;32;20456;-58
2023/01/31 14:31:56;;;;;;;0.50;0.50;;;;;;;8.37;43.19;100690.56;18312737;32;20094;-59
2023/01/31 14:42:37;;;;;;;0.80;0.80;;;;;;;8.30;43.98;100683.53;18294247;32;20113;-59
2023/01/31 14:52:52;;;;;;;0.70;0.70;;;;;;;8.35;45.75;100681.88;18299406;32;20093;-59
2023/01/31 15:03:02;;;;;;;0.70;0.70;;;;;;;7.95;47.55;100678.75;18296657;32;20112;-58
2023/01/31 15:13:37;;;;;;;0.60;0.60;;;;;;;7.98;47.37;100690.06;18300195;32;20401;-58
2023/01/31 15:23:42;;;;;;;0.50;0.50;;;;;;;7.80;48.38;100703.72;18303966;32;20132;-59
2023/01/31 15:33:50;;;;;;;0.70;0.70;;;;;;;7.60;50.46;100717.28;18308113;32;20090;-58
2023/01/31 15:43:55;;;;;;;0.60;0.60;;;;;;;7.58;51.37;100718.97;18313950;32;20102;-59
2023/01/31 15:54:05;;;;;;;0.60;0.60;;;;;;;7.13;54.81;100710.47;18321335;32;20122;-59
2023/01/31 16:04:12;;;;;;;0.70;0.70;;;;;;;7.39;53.26;100698.75;18302631;32;20208;-59
2023/01/31 16:14:17;;;;;;;0.73;0.70;;;;;;;7.15;52.49;100693.19;18303918;32;20093;-59
2023/01/31 16:24:21;;;;;;;1.12;1.12;;;;;;;7.32;52.43;100706.47;18304385;32;20119;-59
2023/01/31 16:34:28;;;;;;;0.80;0.80;;;;;;;7.52;51.88;100702.41;18346622;32;20137;-59
2023/01/31 16:44:34;;;;;;;0.60;0.60;;;;;;;7.44;52.39;100708.34;18303426;32;20149;-59
2023/01/31 16:54:45;;;;;;;0.77;0.77;;;;;;;7.52;51.69;100716.28;18296699;32;20463;-60
2023/01/31 17:04:50;;;;;;;0.63;0.63;;;;;;;7.39;52.20;100710.03;18300421;32;20106;-58
2023/01/31 17:14:57;;;;;;;3.55;3.03;;;;;;;7.39;52.08;100699.62;18300344;32;20185;-58
2023/01/31 17:25:05;;;;;;;0.68;0.68;;;;;;;7.54;51.33;100706.78;18301572;32;20176;-59
2023/01/31 17:35:16;;;;;;;0.60;0.60;;;;;;;7.56;50.12;100712.88;18301453;32;20112;-58
2023/01/31 17:45:19;;;;;;;1.45;1.35;;;;;;;7.74;48.96;100714.00;18301326;32;20134;-59
2023/01/31 17:55:25;;;;;;;2.00;1.83;;;;;;;7.70;48.29;100707.03;18301289;32;20442;-59
2023/01/31 18:05:28;;;;;;;0.50;0.50;;;;;;;7.69;48.26;100694.91;18302085;32;20188;-60
2023/01/31 18:15:42;;;;;;;0.90;0.90;;;;;;;7.80;47.89;100700.22;18301953;32;20139;-59
2023/01/31 18:25:46;;;;;;;0.50;0.50;;;;;;;7.92;47.44;100690.03;18293718;32;20116;-59
2023/01/31 18:35:57;;;;;;;0.50;0.50;;;;;;;7.75;47.17;100692.34;18255221;32;20109;-60
2023/01/31 18:46:03;;;;;;;0.60;0.60;;;;;;;7.90;46.86;100694.28;18248976;32;20094;-60
2023/01/31 18:56:11;;;;;;;0.52;0.52;;;;;;;8.09;46.54;100689.34;18246311;32;20098;-60
2023/01/31 19:06:16;;;;;;;0.80;0.80;;;;;;;8.18;46.45;100685.13;18354428;32;20108;-60
2023/01/31 19:16:22;;;;;;;2.47;1.95;;;;;;;8.09;46.85;100682.44;18370333;32;20143;-59
2023/01/31 19:26:26;;;;;;;1.00;1.00;;;;;;;8.11;47.30;100696.31;18369583;32;20081;-59
2023/01/31 19:36:32;;;;;;;0.77;0.77;;;;;;;7.71;50.79;100701.84;18369398;32;20102;-60
2023/01/31 19:46:36;;;;;;;0.70;0.70;;;;;;;7.49;53.83;100700.63;18330526;32;20120;-59
2023/01/31 19:56:42;;;;;;;0.70;0.70;;;;;;;7.28;55.19;100685.63;18300239;32;20123;-59
2023/01/31 20:06:46;;;;;;;0.62;0.62;;;;;;;6.86;56.96;100698.75;18305635;32;20082;-59
2023/01/31 20:16:50;;;;;;;1.25;1.25;;;;;;;7.12;56.87;100694.87;18305297;32;20109;-60
2023/01/31 20:26:54;;;;;;;0.70;0.70;;;;;;;6.98;57.79;100695.50;18305601;32;20138;-59
2023/01/31 20:36:58;;;;;;;0.77;0.77;;;;;;;6.99;58.49;100689.47;18305096;32;20115;-59
2023/01/31 20:47:02;;;;;;;0.50;0.50;;;;;;;6.88;59.47;100676.31;18305574;32;20090;-60
2023/01/31 20:57:07;;;;;;;0.57;0.57;;;;;;;6.66;61.20;100659.50;18339902;32;20328;-59
2023/01/31 21:07:10;;;;;;;0.50;0.50;;;;;;;6.71;61.23;100664.75;18312744;32;20151;-60
2023/01/31 21:17:17;;;;;;;1.15;0.70;;;;;;;6.71;61.26;100655.25;18308256;32;20100;-59
2023/01/31 21:27:25;;;;;;;0.70;0.70;;;;;;;6.62;61.87;100642.09;18301496;32;20418;-59
2023/01/31 21:37:29;;;;;;;0.70;0.70;;;;;;;6.33;62.68;100624.28;18303855;32;20108;-59
2023/01/31 21:47:33;;;;;;;0.60;0.60;;;;;;;6.53;61.92;100624.66;18304060;32;20098;-59
2023/01/31 21:57:38;;;;;;;0.70;0.70;;;;;;;6.49;61.58;100628.03;18299774;32;20123;-59
2023/01/31 22:07:41;;;;;;;0.50;0.50;;;;;;;6.57;60.94;100635.97;18302072;32;20085;-59
2023/01/31 22:17:45;;;;;;;0.47;0.47;;;;;;;6.52;60.87;100620.34;18299048;32;20101;-60
2023/01/31 22:27:51;;;;;;;1.20;1.20;;;;;;;6.52;61.06;100607.38;18311924;32;20506;-59
2023/01/31 22:37:55;;;;;;;0.62;0.62;;;;;;;6.81;60.09;100609.59;18306731;32;20108;-59
2023/01/31 22:47:58;;;;;;;0.60;0.60;;;;;;;6.82;58.90;100587.09;18322621;32;20139;-60
2023/01/31 22:58:03;;;;;;;0.70;0.70;;;;;;;6.99;58.16;100590.81;18298529;32;20093;-59
2023/01/31 23:08:06;;;;;;;0.70;0.70;;;;;;;7.05;57.68;100566.69;18296178;32;20078;-59
2023/01/31 23:18:15;;;;;;;0.70;0.70;;;;;;;6.85;59.55;100556.88;18296786;32;20098;-59
2023/01/31 23:28:18;;;;;;;0.77;0.77;;;;;;;6.90;58.74;100539.66;18298287;32;20086;-59
2023/01/31 23:38:23;;;;;;;0.95;0.95;;;;;;;7.10;57.66;100552.06;18295285;32;20094;-60
2023/01/31 23:48:26;;;;;;;0.60;0.60;;;;;;;7.02;57.04;100535.50;18322506;32;20454;-59
2023/01/31 23:58:31;;;;;;;0.70;0.70;;;;;;;7.28;56.04;100509.03;18307611;32;20171;-60
